createdAt,value
2019-04-25T00:00:56.327Z,0.00
2019-04-25T00:01:56.403Z,0.00
2019-04-25T00:02:56.434Z,0.00
2019-04-25T00:03:56.452Z,0.00
2019-04-25T00:04:56.516Z,0.00
2019-04-25T00:05:56.543Z,0.00
2019-04-25T00:06:56.627Z,0.00
2019-04-25T00:07:56.660Z,0.00
2019-04-25T00:08:56.679Z,0.00
2019-04-25T00:09:56.728Z,0.00
2019-04-25T00:10:56.772Z,0.00
2019-04-25T00:11:59.480Z,0.00
2019-04-25T00:12:56.895Z,0.00
2019-04-25T00:13:56.913Z,0.00
2019-04-25T00:14:56.968Z,0.00
2019-04-25T00:15:57.013Z,0.00
2019-04-25T00:16:57.052Z,0.00
2019-04-25T00:17:57.120Z,0.00
2019-04-25T00:18:57.180Z,0.00
2019-04-25T00:19:57.194Z,0.00
2019-04-25T00:20:57.237Z,0.00
2019-04-25T00:21:57.278Z,0.00
2019-04-25T00:22:57.333Z,0.00
2019-04-25T00:23:57.392Z,0.00
2019-04-25T00:24:57.419Z,0.00
2019-04-25T00:25:57.477Z,0.00
2019-04-25T00:26:57.508Z,0.00
2019-04-25T00:27:57.579Z,0.00
2019-04-25T00:28:57.624Z,0.00
2019-04-25T00:29:57.648Z,0.00
2019-04-25T00:30:57.702Z,0.00
2019-04-25T00:31:57.747Z,0.00
2019-04-25T00:32:57.804Z,0.00
2019-04-25T00:33:57.852Z,0.00
2019-04-25T00:34:57.879Z,0.00
2019-04-25T00:35:57.928Z,0.00
2019-04-25T00:36:57.974Z,0.00
2019-04-25T00:37:58.019Z,0.00
2019-04-25T00:38:58.086Z,0.00
2019-04-25T00:39:58.110Z,0.00
2019-04-25T00:40:58.158Z,0.00
2019-04-25T00:41:58.206Z,0.00
2019-04-25T00:42:58.252Z,0.00
2019-04-25T00:43:58.597Z,0.00
2019-04-25T00:44:58.343Z,0.00
2019-04-25T00:45:58.390Z,0.00
2019-04-25T00:46:58.434Z,0.00
2019-04-25T00:47:58.485Z,0.00
2019-04-25T00:48:58.558Z,0.00
2019-04-25T00:49:58.573Z,0.00
2019-04-25T00:50:58.621Z,0.00
2019-04-25T00:51:58.676Z,0.00
2019-04-25T00:52:58.851Z,0.00
2019-04-25T00:53:58.779Z,0.00
2019-04-25T00:54:58.808Z,0.00
2019-04-25T00:55:58.852Z,0.00
2019-04-25T00:56:58.902Z,0.00
2019-04-25T00:57:58.948Z,0.00
2019-04-25T00:58:59.030Z,0.00
2019-04-25T00:59:59.038Z,0.00
2019-04-25T01:00:59.087Z,0.00
2019-04-25T01:01:59.135Z,0.00
2019-04-25T01:02:59.176Z,0.00
2019-04-25T01:03:59.271Z,0.00
2019-04-25T01:04:59.268Z,0.00
2019-04-25T01:05:59.314Z,0.00
2019-04-25T01:06:59.361Z,0.00
2019-04-25T01:07:59.411Z,0.00
2019-04-25T01:08:59.475Z,0.00
2019-04-25T01:09:59.517Z,0.00
2019-04-25T01:10:59.576Z,0.00
2019-04-25T01:11:59.599Z,0.00
2019-04-25T01:13:01.360Z,0.00
2019-04-25T01:13:59.715Z,0.00
2019-04-25T01:15:01.540Z,0.00
2019-04-25T01:15:59.777Z,0.00
2019-04-25T01:16:59.823Z,0.00
2019-04-25T01:18:01.094Z,0.00
2019-04-25T01:18:59.918Z,0.00
2019-04-25T01:19:59.992Z,0.00
2019-04-25T01:21:00.010Z,0.00
2019-04-25T01:22:00.114Z,0.00
2019-04-25T01:23:00.950Z,0.00
2019-04-25T01:24:00.153Z,0.00
2019-04-25T01:25:00.216Z,0.00
2019-04-25T01:26:00.244Z,0.00
2019-04-25T01:27:00.303Z,0.00
2019-04-25T01:28:00.334Z,0.00
2019-04-25T01:29:00.434Z,0.00
2019-04-25T01:30:00.463Z,0.00
2019-04-25T01:31:00.480Z,0.00
2019-04-25T01:32:00.519Z,0.00
2019-04-25T01:33:00.573Z,0.00
2019-04-25T01:34:00.614Z,0.00
2019-04-25T01:35:00.681Z,0.00
2019-04-25T01:36:00.756Z,0.00
2019-04-25T01:37:00.754Z,0.00
2019-04-25T01:38:00.798Z,0.00
2019-04-25T01:39:00.845Z,0.00
2019-04-25T01:40:00.928Z,0.00
2019-04-25T01:41:00.947Z,0.00
2019-04-25T01:42:00.985Z,0.00
2019-04-25T01:43:01.029Z,0.00
2019-04-25T01:44:01.080Z,0.00
2019-04-25T01:45:01.153Z,0.00
2019-04-25T01:46:01.181Z,0.00
2019-04-25T01:47:01.232Z,0.00
2019-04-25T01:48:01.267Z,0.00
2019-04-25T01:49:01.313Z,0.00
2019-04-25T01:50:01.375Z,0.00
2019-04-25T01:51:01.418Z,0.00
2019-04-25T01:52:01.464Z,0.00
2019-04-25T01:53:03.304Z,0.00
2019-04-25T01:54:01.549Z,0.00
2019-04-25T01:55:01.586Z,0.00
2019-04-25T01:56:07.132Z,0.00
2019-04-25T01:57:01.686Z,0.00
2019-04-25T01:58:01.722Z,0.00
2019-04-25T01:59:01.777Z,0.00
2019-04-25T02:00:01.963Z,0.00
2019-04-25T02:01:02.651Z,0.00
2019-04-25T02:02:03.797Z,0.00
2019-04-25T02:03:03.680Z,0.00
2019-04-25T02:04:03.254Z,0.00
2019-04-25T02:05:03.975Z,0.00
2019-04-25T02:06:04.106Z,0.00
2019-04-25T02:07:03.622Z,0.00
2019-04-25T02:08:02.196Z,0.00
2019-04-25T02:09:03.839Z,0.00
2019-04-25T02:10:03.669Z,0.00
2019-04-25T02:11:03.193Z,0.00
2019-04-25T02:12:03.373Z,0.00
2019-04-25T02:13:03.832Z,0.00
2019-04-25T02:14:05.044Z,0.00
2019-04-25T02:15:05.896Z,0.00
2019-04-25T02:16:03.416Z,0.00
2019-04-25T02:17:04.442Z,0.00
2019-04-25T02:18:03.779Z,0.00
2019-04-25T02:19:03.972Z,0.00
2019-04-25T02:20:04.166Z,0.00
2019-04-25T02:21:04.384Z,0.00
2019-04-25T02:22:04.006Z,0.00
2019-04-25T02:23:04.193Z,0.00
2019-04-25T02:24:04.357Z,0.00
2019-04-25T02:25:04.435Z,0.00
2019-04-25T02:26:12.640Z,0.00
2019-04-25T02:27:04.550Z,0.00
2019-04-25T02:28:05.518Z,0.00
2019-04-25T02:29:04.559Z,0.00
2019-04-25T02:30:04.396Z,0.00
2019-04-25T02:31:08.175Z,0.00
2019-04-25T02:32:08.784Z,0.00
2019-04-25T02:33:08.961Z,0.00
2019-04-25T02:34:06.272Z,0.00
2019-04-25T02:35:08.893Z,0.00
2019-04-25T02:36:08.322Z,0.00
2019-04-25T02:37:08.668Z,0.00
2019-04-25T02:38:08.504Z,0.00
2019-04-25T02:39:08.428Z,0.00
2019-04-25T02:40:06.667Z,0.00
2019-04-25T02:41:08.409Z,0.00
2019-04-25T02:42:06.847Z,0.00
2019-04-25T02:43:07.987Z,0.00
2019-04-25T02:44:09.268Z,0.00
2019-04-25T02:45:07.231Z,0.00
2019-04-25T02:46:07.458Z,0.00
2019-04-25T02:47:06.891Z,0.00
2019-04-25T02:48:05.699Z,0.00
2019-04-25T02:49:07.706Z,0.00
2019-04-25T02:50:08.341Z,0.00
2019-04-25T02:51:06.157Z,0.00
2019-04-25T02:52:08.498Z,0.00
2019-04-25T02:53:06.151Z,0.00
2019-04-25T02:54:06.740Z,0.00
2019-04-25T02:55:08.950Z,0.00
2019-04-25T02:56:12.402Z,0.00
2019-04-25T02:57:07.819Z,0.00
2019-04-25T02:58:05.641Z,0.00
2019-04-25T02:59:07.003Z,0.00
2019-04-25T03:00:07.328Z,0.00
2019-04-25T03:01:16.509Z,0.00
2019-04-25T03:02:05.798Z,0.00
2019-04-25T03:03:06.896Z,0.00
2019-04-25T03:04:07.421Z,0.00
2019-04-25T03:05:07.869Z,0.00
2019-04-25T03:06:07.479Z,0.00
2019-04-25T03:07:08.161Z,0.00
2019-04-25T03:08:08.316Z,0.00
2019-04-25T03:09:06.453Z,0.00
2019-04-25T03:10:07.695Z,0.00
2019-04-25T03:11:07.387Z,0.00
2019-04-25T03:12:06.593Z,0.00
2019-04-25T03:13:10.218Z,0.00
2019-04-25T03:14:07.121Z,0.00
2019-04-25T03:15:07.199Z,0.00
2019-04-25T03:16:07.636Z,0.00
2019-04-25T03:17:08.234Z,0.00
2019-04-25T03:18:09.286Z,0.00
2019-04-25T03:19:07.603Z,0.00
2019-04-25T03:20:08.070Z,0.00
2019-04-25T03:21:11.571Z,0.00
2019-04-25T03:22:08.295Z,0.00
2019-04-25T03:23:07.683Z,0.00
2019-04-25T03:24:10.391Z,0.00
2019-04-25T03:25:08.800Z,0.00
2019-04-25T03:26:06.250Z,0.00
2019-04-25T03:27:06.231Z,0.00
2019-04-25T03:28:06.097Z,0.00
2019-04-25T03:29:06.176Z,0.00
2019-04-25T03:30:09.586Z,0.00
2019-04-25T03:31:11.285Z,0.00
2019-04-25T03:32:11.335Z,0.00
2019-04-25T03:33:10.462Z,0.00
2019-04-25T03:34:11.395Z,0.00
2019-04-25T03:35:07.063Z,0.00
2019-04-25T03:36:06.846Z,0.00
2019-04-25T03:37:07.647Z,0.00
2019-04-25T03:38:06.426Z,0.00
2019-04-25T03:39:06.676Z,0.00
2019-04-25T03:40:06.658Z,0.00
2019-04-25T03:41:07.050Z,0.00
2019-04-25T03:42:06.485Z,0.00
2019-04-25T03:43:07.078Z,0.00
2019-04-25T03:44:06.594Z,4.00
2019-04-25T03:45:07.158Z,4.00
2019-04-25T03:46:07.046Z,4.00
2019-04-25T03:47:07.766Z,4.00
2019-04-25T03:48:07.509Z,4.00
2019-04-25T03:49:07.550Z,8.00
2019-04-25T03:50:07.294Z,4.00
2019-04-25T03:51:06.886Z,8.00
2019-04-25T03:52:06.936Z,8.00
2019-04-25T03:53:07.796Z,12.00
2019-04-25T03:54:08.525Z,12.00
2019-04-25T03:55:07.716Z,12.00
2019-04-25T03:56:07.351Z,16.00
2019-04-25T03:57:07.518Z,20.00
2019-04-25T03:58:08.675Z,24.00
2019-04-25T03:59:07.284Z,28.00
2019-04-25T04:00:07.531Z,36.00
2019-04-25T04:01:09.258Z,36.00
2019-04-25T04:02:08.173Z,44.00
2019-04-25T04:03:07.915Z,56.00
2019-04-25T04:04:07.982Z,64.00
2019-04-25T04:05:08.297Z,76.00
2019-04-25T04:06:08.617Z,88.00
2019-04-25T04:07:09.655Z,100.00
2019-04-25T04:08:07.661Z,116.00
2019-04-25T04:09:07.967Z,132.00
2019-04-25T04:10:08.009Z,148.00
2019-04-25T04:11:08.604Z,164.00
2019-04-25T04:12:07.988Z,184.00
2019-04-25T04:13:08.498Z,208.00
2019-04-25T04:14:08.241Z,228.00
2019-04-25T04:15:08.321Z,252.00
2019-04-25T04:16:08.469Z,280.00
2019-04-25T04:17:08.785Z,308.00
2019-04-25T04:18:08.608Z,336.00
2019-04-25T04:19:08.889Z,372.00
2019-04-25T04:20:08.861Z,412.00
2019-04-25T04:21:08.969Z,448.00
2019-04-25T04:22:09.054Z,492.00
2019-04-25T04:23:09.197Z,532.00
2019-04-25T04:24:08.374Z,584.00
2019-04-25T04:25:08.430Z,628.00
2019-04-25T04:26:08.455Z,676.00
2019-04-25T04:27:09.216Z,724.00
2019-04-25T04:28:08.554Z,772.00
2019-04-25T04:29:08.590Z,816.00
2019-04-25T04:30:08.657Z,856.00
2019-04-25T04:31:08.742Z,896.00
2019-04-25T04:32:08.746Z,936.00
2019-04-25T04:33:08.769Z,968.00
2019-04-25T04:34:08.814Z,1004.00
2019-04-25T04:35:08.896Z,1040.00
2019-04-25T04:36:08.925Z,1076.00
2019-04-25T04:37:08.998Z,1108.00
2019-04-25T04:38:09.598Z,1148.00
2019-04-25T04:39:09.904Z,1188.00
2019-04-25T04:40:09.609Z,1228.00
2019-04-25T04:41:09.695Z,1264.00
2019-04-25T04:42:09.627Z,1300.00
2019-04-25T04:43:09.625Z,1344.00
2019-04-25T04:44:09.996Z,1384.00
2019-04-25T04:45:10.187Z,1432.00
2019-04-25T04:46:10.113Z,1480.00
2019-04-25T04:47:10.003Z,1516.00
2019-04-25T04:48:10.219Z,1556.00
2019-04-25T04:49:10.220Z,1592.00
2019-04-25T04:50:10.411Z,1644.00
2019-04-25T04:51:10.464Z,1700.00
2019-04-25T04:52:10.448Z,1748.00
2019-04-25T04:53:09.667Z,1792.00
2019-04-25T04:54:09.728Z,1832.00
2019-04-25T04:55:11.232Z,1868.00
2019-04-25T04:56:09.824Z,1892.00
2019-04-25T04:57:22.089Z,1908.00
2019-04-25T04:58:10.370Z,1932.00
2019-04-25T04:59:10.856Z,1968.00
2019-04-25T05:00:10.248Z,2004.00
2019-04-25T05:01:10.234Z,2024.00
2019-04-25T05:02:10.671Z,2048.00
2019-04-25T05:03:10.474Z,2072.00
2019-04-25T05:04:10.607Z,2104.00
2019-04-25T05:05:10.608Z,2124.00
2019-04-25T05:06:10.936Z,2148.00
2019-04-25T05:07:11.014Z,2184.00
2019-04-25T05:08:11.046Z,2208.00
2019-04-25T05:09:11.860Z,2236.00
2019-04-25T05:10:11.276Z,2264.00
2019-04-25T05:11:10.475Z,2296.00
2019-04-25T05:12:10.722Z,2320.00
2019-04-25T05:13:11.993Z,2352.00
2019-04-25T05:14:11.047Z,2380.00
2019-04-25T05:15:10.653Z,2412.00
2019-04-25T05:16:11.175Z,2444.00
2019-04-25T05:17:11.357Z,2476.00
2019-04-25T05:18:11.518Z,2504.00
2019-04-25T05:19:11.677Z,2536.00
2019-04-25T05:20:11.986Z,2560.00
2019-04-25T05:21:10.930Z,2592.00
2019-04-25T05:22:12.340Z,2628.00
2019-04-25T05:23:11.017Z,2660.00
2019-04-25T05:24:11.061Z,2688.00
2019-04-25T05:25:11.115Z,2716.00
2019-04-25T05:26:11.149Z,2744.00
2019-04-25T05:27:11.229Z,2776.00
2019-04-25T05:28:11.238Z,2804.00
2019-04-25T05:29:11.284Z,2828.00
2019-04-25T05:30:11.332Z,2852.00
2019-04-25T05:31:11.376Z,2884.00
2019-04-25T05:32:11.457Z,2912.00
2019-04-25T05:33:11.616Z,2944.00
2019-04-25T05:34:11.517Z,2968.00
2019-04-25T05:35:13.196Z,2996.00
2019-04-25T05:36:11.602Z,3024.00
2019-04-25T05:37:13.426Z,3056.00
2019-04-25T05:38:14.236Z,3084.00
2019-04-25T05:39:11.759Z,3112.00
2019-04-25T05:40:13.692Z,3136.00
2019-04-25T05:41:11.827Z,3168.00
2019-04-25T05:42:11.876Z,3196.00
2019-04-25T05:43:13.280Z,3220.00
2019-04-25T05:44:11.977Z,3240.00
2019-04-25T05:45:13.044Z,3264.00
2019-04-25T05:46:13.212Z,3276.00
2019-04-25T05:47:12.108Z,3296.00
2019-04-25T05:48:12.175Z,3308.00
2019-04-25T05:49:13.732Z,3320.00
2019-04-25T05:50:13.809Z,3332.00
2019-04-25T05:51:13.497Z,3332.00
2019-04-25T05:52:13.888Z,3328.00
2019-04-25T05:53:14.081Z,3328.00
2019-04-25T05:54:13.981Z,3332.00
2019-04-25T05:55:14.283Z,3336.00
2019-04-25T05:56:13.627Z,3336.00
2019-04-25T05:57:13.773Z,3340.00
2019-04-25T05:58:13.856Z,3336.00
2019-04-25T05:59:13.459Z,3344.00
2019-04-25T06:00:13.455Z,3408.00
2019-04-25T06:01:13.410Z,3444.00
2019-04-25T06:02:13.954Z,3488.00
2019-04-25T06:03:13.724Z,3532.00
2019-04-25T06:04:13.933Z,3556.00
2019-04-25T06:05:13.188Z,3580.00
2019-04-25T06:06:13.427Z,3604.00
2019-04-25T06:07:14.477Z,3624.00
2019-04-25T06:08:14.121Z,3644.00
2019-04-25T06:09:14.116Z,3668.00
2019-04-25T06:10:14.417Z,3696.00
2019-04-25T06:11:13.558Z,3724.00
2019-04-25T06:12:13.496Z,3740.00
2019-04-25T06:13:13.813Z,3768.00
2019-04-25T06:14:13.575Z,3784.00
2019-04-25T06:15:13.401Z,3812.00
2019-04-25T06:16:13.539Z,3836.00
2019-04-25T06:17:13.758Z,3856.00
2019-04-25T06:18:13.990Z,3880.00
2019-04-25T06:19:18.354Z,3880.00
2019-04-25T06:20:13.675Z,3888.00
2019-04-25T06:21:13.691Z,3900.00
2019-04-25T06:22:15.132Z,3880.00
2019-04-25T06:23:13.785Z,3912.00
2019-04-25T06:24:13.880Z,3916.00
2019-04-25T06:25:16.299Z,3912.00
2019-04-25T06:26:22.570Z,3904.00
2019-04-25T06:27:14.008Z,3924.00
2019-04-25T06:28:14.021Z,3940.00
2019-04-25T06:29:14.076Z,3952.00
2019-04-25T06:30:15.679Z,4000.00
2019-04-25T06:31:14.154Z,4008.00
2019-04-25T06:32:14.340Z,4036.00
2019-04-25T06:33:14.277Z,6040.00
2019-04-25T06:34:14.327Z,17952.00
2019-04-25T06:35:14.408Z,25696.00
2019-04-25T06:36:14.439Z,28896.00
2019-04-25T06:37:14.446Z,27552.00
2019-04-25T06:38:14.490Z,26752.00
2019-04-25T06:39:14.571Z,28032.00
2019-04-25T06:40:14.585Z,28128.00
2019-04-25T06:41:14.643Z,29696.00
2019-04-25T06:42:14.686Z,29376.00
2019-04-25T06:43:14.732Z,29088.00
2019-04-25T06:44:14.801Z,29536.00
2019-04-25T06:45:14.833Z,30176.00
2019-04-25T06:46:14.882Z,31584.00
2019-04-25T06:47:15.146Z,32832.00
2019-04-25T06:48:14.976Z,33504.00
2019-04-25T06:49:15.029Z,33920.00
2019-04-25T06:50:15.811Z,32288.00
2019-04-25T06:51:15.139Z,32896.00
2019-04-25T06:52:15.200Z,34080.00
2019-04-25T06:53:15.222Z,33568.00
2019-04-25T06:54:15.297Z,34208.00
2019-04-25T06:55:15.337Z,36256.00
2019-04-25T06:56:15.371Z,37056.00
2019-04-25T06:57:15.420Z,36768.00
2019-04-25T06:58:15.470Z,36544.00
2019-04-25T06:59:15.539Z,36192.00
2019-04-25T07:00:15.600Z,38144.00
2019-04-25T07:01:15.619Z,38112.00
2019-04-25T07:02:15.679Z,36928.00
2019-04-25T07:03:15.765Z,37664.00
2019-04-25T07:04:15.829Z,38912.00
2019-04-25T07:05:26.625Z,38880.00
2019-04-25T07:06:15.885Z,39008.00
2019-04-25T07:07:15.925Z,40448.00
2019-04-25T07:08:15.978Z,41568.00
2019-04-25T07:09:16.026Z,41184.00
2019-04-25T07:10:16.099Z,41344.00
2019-04-25T07:11:16.134Z,42560.00
2019-04-25T07:12:16.178Z,43136.00
2019-04-25T07:13:16.232Z,42720.00
2019-04-25T07:14:16.294Z,43776.00
2019-04-25T07:15:16.361Z,45440.00
2019-04-25T07:16:16.381Z,44896.00
2019-04-25T07:17:16.441Z,44128.00
2019-04-25T07:18:16.494Z,45248.00
2019-04-25T07:19:17.616Z,48448.00
2019-04-25T07:20:16.613Z,49472.00
2019-04-25T07:21:16.640Z,48224.00
2019-04-25T07:22:16.690Z,48128.00
2019-04-25T07:23:16.869Z,49856.00
2019-04-25T07:24:17.613Z,50592.00
2019-04-25T07:25:16.866Z,49376.00
2019-04-25T07:26:16.901Z,51136.00
2019-04-25T07:27:16.976Z,54976.00
2019-04-25T07:28:24.168Z,55776.00
2019-04-25T07:29:17.057Z,52736.00
2019-04-25T07:30:26.956Z,52032.00
2019-04-25T07:31:17.178Z,54368.00
2019-04-25T07:32:17.213Z,55808.00
2019-04-25T07:33:17.254Z,54080.00
2019-04-25T07:34:17.304Z,54400.00
2019-04-25T07:35:17.358Z,59296.00
2019-04-25T07:36:17.445Z,62304.00
2019-04-25T07:37:17.462Z,60512.00
2019-04-25T07:38:17.518Z,57664.00
2019-04-25T07:39:17.589Z,56960.00
2019-04-25T07:40:17.617Z,59616.00
2019-04-25T07:41:17.705Z,60512.00
2019-04-25T07:42:17.842Z,59904.00
2019-04-25T07:43:17.777Z,60384.00
2019-04-25T07:44:17.840Z,60864.00
2019-04-25T07:45:17.960Z,62688.00
2019-04-25T07:46:17.949Z,62784.00
2019-04-25T07:47:17.989Z,61920.00
2019-04-25T07:48:18.047Z,61536.00
2019-04-25T07:49:18.086Z,60640.00
2019-04-25T07:50:18.135Z,59264.00
2019-04-25T07:51:18.208Z,60384.00
2019-04-25T07:52:18.241Z,61696.00
2019-04-25T07:53:18.303Z,61792.00
2019-04-25T07:54:18.356Z,60000.00
2019-04-25T07:55:18.395Z,58496.00
2019-04-25T07:56:18.477Z,58144.00
2019-04-25T07:57:18.508Z,58880.00
2019-04-25T07:58:18.566Z,62048.00
2019-04-25T07:59:18.613Z,62080.00
2019-04-25T08:00:18.713Z,57984.00
2019-04-25T08:01:18.724Z,57344.00
2019-04-25T08:02:18.757Z,61664.00
2019-04-25T08:03:18.810Z,62368.00
2019-04-25T08:04:18.865Z,60352.00
2019-04-25T08:05:18.914Z,57280.00
2019-04-25T08:06:19.005Z,59424.00
2019-04-25T08:07:19.030Z,64256.00
2019-04-25T08:08:19.072Z,67808.00
2019-04-25T08:09:19.154Z,68064.00
2019-04-25T08:10:19.186Z,64864.00
2019-04-25T08:11:19.320Z,64032.00
2019-04-25T08:12:19.291Z,64608.00
2019-04-25T08:13:19.333Z,68224.00
2019-04-25T08:14:19.386Z,70048.00
2019-04-25T08:15:19.470Z,68064.00
2019-04-25T08:16:19.528Z,60448.00
2019-04-25T08:17:19.545Z,63648.00
2019-04-25T08:18:19.613Z,65120.00
2019-04-25T08:19:19.657Z,65888.00
2019-04-25T08:20:19.709Z,64480.00
2019-04-25T08:21:19.792Z,66528.00
2019-04-25T08:22:19.824Z,69856.00
2019-04-25T08:23:19.867Z,74240.00
2019-04-25T08:24:19.909Z,75712.00
2019-04-25T08:25:20.030Z,72256.00
2019-04-25T08:26:20.020Z,67168.00
2019-04-25T08:27:20.112Z,73632.00
2019-04-25T08:28:20.142Z,73984.00
2019-04-25T08:29:22.857Z,74144.00
2019-04-25T08:30:20.231Z,75840.00
2019-04-25T08:31:20.278Z,76832.00
2019-04-25T08:32:20.356Z,35328.00
2019-04-25T08:33:20.391Z,59552.00
2019-04-25T08:34:20.440Z,36160.00
2019-04-25T08:35:20.490Z,43264.00
2019-04-25T08:36:20.577Z,66272.00
2019-04-25T08:37:21.166Z,54208.00
2019-04-25T08:38:20.646Z,40896.00
2019-04-25T08:39:20.708Z,40224.00
2019-04-25T08:40:20.753Z,40608.00
2019-04-25T08:41:21.674Z,33824.00
2019-04-25T08:42:20.888Z,40544.00
2019-04-25T08:43:20.943Z,31680.00
2019-04-25T08:44:20.975Z,32960.00
2019-04-25T08:45:21.102Z,31136.00
2019-04-25T08:46:21.065Z,30080.00
2019-04-25T08:47:21.118Z,32480.00
2019-04-25T08:48:21.195Z,56544.00
2019-04-25T08:49:21.227Z,44288.00
2019-04-25T08:50:28.901Z,34176.00
2019-04-25T08:51:21.320Z,42144.00
2019-04-25T08:52:21.398Z,66944.00
2019-04-25T08:53:21.452Z,59136.00
2019-04-25T08:54:21.482Z,69216.00
2019-04-25T08:55:21.532Z,71936.00
2019-04-25T08:56:21.594Z,81696.00
2019-04-25T08:57:21.631Z,110080.00
2019-04-25T08:58:21.706Z,110016.00
2019-04-25T08:59:32.750Z,83488.00
2019-04-25T09:00:21.795Z,102464.00
2019-04-25T09:01:23.548Z,63264.00
2019-04-25T09:02:23.424Z,89056.00
2019-04-25T09:03:22.120Z,91776.00
2019-04-25T09:04:22.010Z,84800.00
2019-04-25T09:05:22.047Z,90400.00
2019-04-25T09:06:22.113Z,93856.00
2019-04-25T09:07:23.561Z,73728.00
2019-04-25T09:08:23.987Z,76576.00
2019-04-25T09:09:23.575Z,86144.00
2019-04-25T09:10:23.765Z,85280.00
2019-04-25T09:11:22.359Z,83392.00
2019-04-25T09:12:23.936Z,96192.00
2019-04-25T09:13:23.507Z,71328.00
2019-04-25T09:14:22.539Z,61024.00
2019-04-25T09:15:23.987Z,104416.00
2019-04-25T09:16:23.959Z,69632.00
2019-04-25T09:17:24.185Z,55648.00
2019-04-25T09:18:24.057Z,76480.00
2019-04-25T09:19:24.122Z,100032.00
2019-04-25T09:20:23.567Z,109920.00
2019-04-25T09:21:23.795Z,104256.00
2019-04-25T09:22:24.223Z,86848.00
2019-04-25T09:23:23.659Z,85120.00
2019-04-25T09:24:24.525Z,80928.00
2019-04-25T09:25:23.856Z,87296.00
2019-04-25T09:26:24.143Z,70240.00
2019-04-25T09:27:23.557Z,60320.00
2019-04-25T09:28:23.822Z,92704.00
2019-04-25T09:29:23.527Z,54944.00
2019-04-25T09:30:24.096Z,87136.00
2019-04-25T09:31:23.686Z,89440.00
2019-04-25T09:32:23.820Z,82528.00
2019-04-25T09:33:23.521Z,46720.00
2019-04-25T09:34:23.852Z,74656.00
2019-04-25T09:35:23.737Z,62784.00
2019-04-25T09:36:24.051Z,41664.00
2019-04-25T09:37:24.646Z,42848.00
2019-04-25T09:38:24.383Z,46592.00
2019-04-25T09:39:23.852Z,55616.00
2019-04-25T09:40:24.119Z,74560.00
2019-04-25T09:41:23.947Z,58272.00
2019-04-25T09:42:23.992Z,52256.00
2019-04-25T09:43:24.046Z,54400.00
2019-04-25T09:44:24.264Z,49184.00
2019-04-25T09:45:25.862Z,59744.00
2019-04-25T09:46:24.339Z,75808.00
2019-04-25T09:47:24.252Z,70848.00
2019-04-25T09:48:24.302Z,76128.00
2019-04-25T09:49:24.355Z,73152.00
2019-04-25T09:50:24.445Z,71968.00
2019-04-25T09:51:24.462Z,68544.00
2019-04-25T09:52:24.515Z,63488.00
2019-04-25T09:53:26.025Z,83680.00
2019-04-25T09:54:24.633Z,54400.00
2019-04-25T09:55:24.698Z,41120.00
2019-04-25T09:56:24.721Z,41440.00
2019-04-25T09:57:24.771Z,47136.00
2019-04-25T09:58:24.828Z,69152.00
2019-04-25T09:59:27.907Z,45984.00
2019-04-25T10:00:24.956Z,42112.00
2019-04-25T10:01:24.985Z,37760.00
2019-04-25T10:02:25.042Z,37088.00
2019-04-25T10:03:25.088Z,34368.00
2019-04-25T10:04:25.143Z,32576.00
2019-04-25T10:05:25.208Z,31040.00
2019-04-25T10:06:25.249Z,30016.00
2019-04-25T10:07:25.291Z,29792.00
2019-04-25T10:08:25.342Z,29984.00
2019-04-25T10:09:25.402Z,30528.00
2019-04-25T10:10:25.487Z,30464.00
2019-04-25T10:11:25.516Z,30304.00
2019-04-25T10:12:25.563Z,29536.00
2019-04-25T10:13:25.628Z,29216.00
2019-04-25T10:14:25.655Z,28864.00
2019-04-25T10:15:25.705Z,28544.00
2019-04-25T10:16:25.785Z,28480.00
2019-04-25T10:17:25.812Z,28704.00
2019-04-25T10:18:25.862Z,29280.00
2019-04-25T10:19:25.909Z,29504.00
2019-04-25T10:20:25.995Z,29280.00
2019-04-25T10:21:26.056Z,29312.00
2019-04-25T10:22:26.061Z,29184.00
2019-04-25T10:23:26.115Z,29184.00
2019-04-25T10:24:26.182Z,29376.00
2019-04-25T10:25:26.232Z,30112.00
2019-04-25T10:26:26.304Z,31328.00
2019-04-25T10:27:26.321Z,32192.00
2019-04-25T10:28:26.375Z,32032.00
2019-04-25T10:29:26.424Z,32032.00
2019-04-25T10:30:26.477Z,31936.00
2019-04-25T10:31:26.643Z,31648.00
2019-04-25T10:32:26.581Z,31488.00
2019-04-25T10:33:26.642Z,31296.00
2019-04-25T10:34:26.682Z,30304.00
2019-04-25T10:35:26.738Z,29440.00
2019-04-25T10:36:26.800Z,28640.00
2019-04-25T10:37:26.835Z,28096.00
2019-04-25T10:38:26.889Z,27648.00
2019-04-25T10:39:27.021Z,27168.00
2019-04-25T10:40:26.984Z,26432.00
2019-04-25T10:41:27.061Z,25888.00
2019-04-25T10:42:27.100Z,25568.00
2019-04-25T10:43:27.139Z,25600.00
2019-04-25T10:44:27.198Z,26016.00
2019-04-25T10:45:27.263Z,26432.00
2019-04-25T10:46:27.312Z,26624.00
2019-04-25T10:47:27.344Z,26720.00
2019-04-25T10:48:27.398Z,26976.00
2019-04-25T10:49:27.446Z,27392.00
2019-04-25T10:50:27.501Z,28096.00
2019-04-25T10:51:27.572Z,28736.00
2019-04-25T10:52:27.602Z,29056.00
2019-04-25T10:53:27.657Z,29024.00
2019-04-25T10:54:27.707Z,28736.00
2019-04-25T10:55:27.761Z,28512.00
2019-04-25T10:56:27.913Z,28672.00
2019-04-25T10:57:27.864Z,29056.00
2019-04-25T10:58:27.913Z,29280.00
2019-04-25T10:59:27.969Z,30240.00
2019-04-25T11:00:28.040Z,31648.00
2019-04-25T11:01:28.092Z,32480.00
2019-04-25T11:02:28.116Z,33216.00
2019-04-25T11:03:28.171Z,33184.00
2019-04-25T11:04:28.260Z,32992.00
2019-04-25T11:05:28.278Z,32928.00
2019-04-25T11:06:28.333Z,33568.00
2019-04-25T11:07:28.365Z,34080.00
2019-04-25T11:08:28.425Z,34176.00
2019-04-25T11:09:28.475Z,34784.00
2019-04-25T11:10:28.522Z,35680.00
2019-04-25T11:11:28.598Z,35200.00
2019-04-25T11:12:28.657Z,34752.00
2019-04-25T11:13:28.675Z,33760.00
2019-04-25T11:14:28.725Z,33120.00
2019-04-25T11:15:28.782Z,33216.00
2019-04-25T11:16:28.850Z,33088.00
2019-04-25T11:17:28.912Z,33344.00
2019-04-25T11:18:28.933Z,33536.00
2019-04-25T11:19:28.982Z,34304.00
2019-04-25T11:20:29.041Z,36256.00
2019-04-25T11:21:29.084Z,35712.00
2019-04-25T11:22:29.159Z,36448.00
2019-04-25T11:23:29.186Z,40352.00
2019-04-25T11:24:29.237Z,38112.00
2019-04-25T11:25:29.294Z,34944.00
2019-04-25T11:26:29.356Z,33856.00
2019-04-25T11:27:29.414Z,33856.00
2019-04-25T11:28:29.443Z,34368.00
2019-04-25T11:29:29.503Z,34592.00
2019-04-25T11:30:29.632Z,35072.00
2019-04-25T11:31:29.607Z,35840.00
2019-04-25T11:32:29.673Z,35008.00
2019-04-25T11:33:29.704Z,33568.00
2019-04-25T11:34:29.762Z,32672.00
2019-04-25T11:35:29.805Z,31488.00
2019-04-25T11:36:29.862Z,31104.00
2019-04-25T11:37:29.991Z,31520.00
2019-04-25T11:38:30.924Z,32288.00
2019-04-25T11:39:30.008Z,34176.00
2019-04-25T11:40:30.067Z,33856.00
2019-04-25T11:41:30.111Z,32128.00
2019-04-25T11:42:30.185Z,31776.00
2019-04-25T11:43:30.213Z,32064.00
2019-04-25T11:44:30.286Z,33088.00
2019-04-25T11:45:30.316Z,34048.00
2019-04-25T11:46:30.388Z,36032.00
2019-04-25T11:47:30.469Z,39456.00
2019-04-25T11:48:30.471Z,44448.00
2019-04-25T11:49:30.529Z,55040.00
2019-04-25T11:50:30.583Z,49696.00
2019-04-25T11:51:30.626Z,47264.00
2019-04-25T11:52:30.706Z,47328.00
2019-04-25T11:53:30.748Z,48320.00
2019-04-25T11:54:30.779Z,61632.00
2019-04-25T11:55:30.829Z,42208.00
2019-04-25T11:56:30.884Z,39104.00
2019-04-25T11:57:30.956Z,39136.00
2019-04-25T11:58:30.987Z,40352.00
2019-04-25T11:59:31.063Z,46016.00
2019-04-25T12:00:31.088Z,59648.00
2019-04-25T12:01:31.146Z,60800.00
2019-04-25T12:02:31.198Z,52544.00
2019-04-25T12:03:31.262Z,43904.00
2019-04-25T12:04:31.298Z,61696.00
2019-04-25T12:05:31.347Z,49184.00
2019-04-25T12:06:31.403Z,52320.00
2019-04-25T12:07:31.453Z,89248.00
2019-04-25T12:08:31.530Z,48544.00
2019-04-25T12:09:31.567Z,38784.00
2019-04-25T12:10:31.614Z,36800.00
2019-04-25T12:11:31.750Z,44960.00
2019-04-25T12:12:31.716Z,48928.00
2019-04-25T12:13:31.800Z,53920.00
2019-04-25T12:14:31.860Z,67232.00
2019-04-25T12:15:33.268Z,47680.00
2019-04-25T12:16:31.933Z,41280.00
2019-04-25T12:17:31.986Z,37792.00
2019-04-25T12:18:33.439Z,37760.00